sensor_id;sensor_type;location;lat;lon;timestamp;temperature;humidity
67759;SHT31;54562;47.620;18.786;2022-07-10T00:02:24;17.78;61.88
67759;SHT31;54562;47.620;18.786;2022-07-10T00:05:30;17.74;62.00
67759;SHT31;54562;47.620;18.786;2022-07-10T00:08:36;17.69;62.28
67759;SHT31;54562;47.620;18.786;2022-07-10T00:11:42;17.65;62.46
67759;SHT31;54562;47.620;18.786;2022-07-10T00:14:46;17.61;62.67
67759;SHT31;54562;47.620;18.786;2022-07-10T00:17:51;17.56;63.05
67759;SHT31;54562;47.620;18.786;2022-07-10T00:20:56;17.51;63.28
67759;SHT31;54562;47.620;18.786;2022-07-10T00:24:01;17.46;63.69
67759;SHT31;54562;47.620;18.786;2022-07-10T00:27:07;17.43;63.88
67759;SHT31;54562;47.620;18.786;2022-07-10T00:30:12;17.39;64.32
67759;SHT31;54562;47.620;18.786;2022-07-10T00:33:17;17.37;64.52
67759;SHT31;54562;47.620;18.786;2022-07-10T00:36:22;17.33;64.85
67759;SHT31;54562;47.620;18.786;2022-07-10T00:39:27;17.30;65.08
67759;SHT31;54562;47.620;18.786;2022-07-10T00:42:32;17.25;65.56
67759;SHT31;54562;47.620;18.786;2022-07-10T00:45:37;17.22;65.78
67759;SHT31;54562;47.620;18.786;2022-07-10T00:48:42;17.18;66.07
67759;SHT31;54562;47.620;18.786;2022-07-10T00:51:47;17.18;66.08
67759;SHT31;54562;47.620;18.786;2022-07-10T00:54:52;17.18;66.04
67759;SHT31;54562;47.620;18.786;2022-07-10T00:57:57;17.16;66.30
67759;SHT31;54562;47.620;18.786;2022-07-10T01:01:02;17.13;66.46
67759;SHT31;54562;47.620;18.786;2022-07-10T01:04:08;17.11;66.58
67759;SHT31;54562;47.620;18.786;2022-07-10T01:07:13;17.07;66.68
67759;SHT31;54562;47.620;18.786;2022-07-10T01:10:18;17.03;66.83
67759;SHT31;54562;47.620;18.786;2022-07-10T01:13:23;16.99;67.06
67759;SHT31;54562;47.620;18.786;2022-07-10T01:16:30;16.92;67.12
67759;SHT31;54562;47.620;18.786;2022-07-10T01:19:35;16.88;67.30
67759;SHT31;54562;47.620;18.786;2022-07-10T01:22:40;16.85;67.42
67759;SHT31;54562;47.620;18.786;2022-07-10T01:25:45;16.81;67.74
67759;SHT31;54562;47.620;18.786;2022-07-10T01:28:51;16.76;67.86
67759;SHT31;54562;47.620;18.786;2022-07-10T01:31:57;16.74;68.01
67759;SHT31;54562;47.620;18.786;2022-07-10T01:35:04;16.70;68.25
67759;SHT31;54562;47.620;18.786;2022-07-10T01:38:11;16.67;68.30
67759;SHT31;54562;47.620;18.786;2022-07-10T01:41:16;16.63;68.40
67759;SHT31;54562;47.620;18.786;2022-07-10T01:44:21;16.59;68.56
67759;SHT31;54562;47.620;18.786;2022-07-10T01:47:26;16.56;68.77
67759;SHT31;54562;47.620;18.786;2022-07-10T01:50:31;16.52;68.91
67759;SHT31;54562;47.620;18.786;2022-07-10T01:53:36;16.52;69.00
67759;SHT31;54562;47.620;18.786;2022-07-10T01:56:42;16.51;68.90
67759;SHT31;54562;47.620;18.786;2022-07-10T01:59:47;16.51;68.95
67759;SHT31;54562;47.620;18.786;2022-07-10T02:02:52;16.52;69.05
67759;SHT31;54562;47.620;18.786;2022-07-10T02:06:14;16.50;69.10
67759;SHT31;54562;47.620;18.786;2022-07-10T02:09:20;16.48;69.22
67759;SHT31;54562;47.620;18.786;2022-07-10T02:12:24;16.47;69.19
67759;SHT31;54562;47.620;18.786;2022-07-10T02:15:29;16.45;69.30
67759;SHT31;54562;47.620;18.786;2022-07-10T02:18:34;16.40;69.57
67759;SHT31;54562;47.620;18.786;2022-07-10T02:21:40;16.35;69.72
67759;SHT31;54562;47.620;18.786;2022-07-10T02:24:45;16.34;69.72
67759;SHT31;54562;47.620;18.786;2022-07-10T02:27:50;16.34;69.69
67759;SHT31;54562;47.620;18.786;2022-07-10T02:30:55;16.33;69.75
67759;SHT31;54562;47.620;18.786;2022-07-10T02:34:00;16.31;69.93
67759;SHT31;54562;47.620;18.786;2022-07-10T02:37:05;16.30;69.94
67759;SHT31;54562;47.620;18.786;2022-07-10T02:40:10;16.30;69.97
67759;SHT31;54562;47.620;18.786;2022-07-10T02:43:14;16.26;70.18
67759;SHT31;54562;47.620;18.786;2022-07-10T02:46:19;16.20;70.33
67759;SHT31;54562;47.620;18.786;2022-07-10T02:49:24;16.18;70.41
67759;SHT31;54562;47.620;18.786;2022-07-10T02:52:29;16.15;70.63
67759;SHT31;54562;47.620;18.786;2022-07-10T02:55:33;16.12;70.78
67759;SHT31;54562;47.620;18.786;2022-07-10T02:58:38;16.08;70.92
67759;SHT31;54562;47.620;18.786;2022-07-10T03:01:44;16.05;71.04
67759;SHT31;54562;47.620;18.786;2022-07-10T03:04:49;16.02;71.19
67759;SHT31;54562;47.620;18.786;2022-07-10T03:07:53;15.98;71.40
67759;SHT31;54562;47.620;18.786;2022-07-10T03:10:58;15.95;71.53
67759;SHT31;54562;47.620;18.786;2022-07-10T03:14:03;15.91;71.66
67759;SHT31;54562;47.620;18.786;2022-07-10T03:17:08;15.88;71.79
67759;SHT31;54562;47.620;18.786;2022-07-10T03:20:13;15.86;71.93
67759;SHT31;54562;47.620;18.786;2022-07-10T03:23:18;15.84;72.04
67759;SHT31;54562;47.620;18.786;2022-07-10T03:26:23;15.83;72.32
67759;SHT31;54562;47.620;18.786;2022-07-10T03:29:28;15.78;72.52
67759;SHT31;54562;47.620;18.786;2022-07-10T03:32:34;15.73;72.84
67759;SHT31;54562;47.620;18.786;2022-07-10T03:35:39;15.71;72.97
67759;SHT31;54562;47.620;18.786;2022-07-10T03:38:44;15.70;73.17
67759;SHT31;54562;47.620;18.786;2022-07-10T03:41:49;15.67;73.25
67759;SHT31;54562;47.620;18.786;2022-07-10T03:44:53;15.63;73.35
67759;SHT31;54562;47.620;18.786;2022-07-10T03:47:58;15.63;73.42
67759;SHT31;54562;47.620;18.786;2022-07-10T03:51:03;15.67;73.36
67759;SHT31;54562;47.620;18.786;2022-07-10T03:54:08;15.70;73.31
67759;SHT31;54562;47.620;18.786;2022-07-10T03:57:13;15.70;73.30
67759;SHT31;54562;47.620;18.786;2022-07-10T04:00:36;15.71;73.44
67759;SHT31;54562;47.620;18.786;2022-07-10T04:03:42;15.71;73.42
67759;SHT31;54562;47.620;18.786;2022-07-10T04:06:47;15.72;73.43
67759;SHT31;54562;47.620;18.786;2022-07-10T04:09:52;15.72;73.53
67759;SHT31;54562;47.620;18.786;2022-07-10T04:12:57;15.71;73.56
67759;SHT31;54562;47.620;18.786;2022-07-10T04:16:03;15.70;73.72
67759;SHT31;54562;47.620;18.786;2022-07-10T04:19:12;15.69;73.88
67759;SHT31;54562;47.620;18.786;2022-07-10T04:22:17;15.70;73.93
67759;SHT31;54562;47.620;18.786;2022-07-10T04:25:22;15.78;73.78
67759;SHT31;54562;47.620;18.786;2022-07-10T04:28:27;15.88;73.78
67759;SHT31;54562;47.620;18.786;2022-07-10T04:31:31;15.96;73.73
67759;SHT31;54562;47.620;18.786;2022-07-10T04:34:36;16.04;73.68
67759;SHT31;54562;47.620;18.786;2022-07-10T04:37:41;16.13;73.41
67759;SHT31;54562;47.620;18.786;2022-07-10T04:40:45;16.14;73.41
67759;SHT31;54562;47.620;18.786;2022-07-10T04:43:50;16.09;73.34
67759;SHT31;54562;47.620;18.786;2022-07-10T04:46:55;16.04;73.36
67759;SHT31;54562;47.620;18.786;2022-07-10T04:50:00;16.00;73.42
67759;SHT31;54562;47.620;18.786;2022-07-10T04:53:06;16.03;73.53
67759;SHT31;54562;47.620;18.786;2022-07-10T04:56:11;16.11;73.55
67759;SHT31;54562;47.620;18.786;2022-07-10T04:59:16;16.21;73.43
67759;SHT31;54562;47.620;18.786;2022-07-10T05:02:20;16.36;73.28
67759;SHT31;54562;47.620;18.786;2022-07-10T05:05:25;16.43;73.02
67759;SHT31;54562;47.620;18.786;2022-07-10T05:08:30;16.43;72.80
67759;SHT31;54562;47.620;18.786;2022-07-10T05:11:35;16.39;72.72
67759;SHT31;54562;47.620;18.786;2022-07-10T05:14:40;16.38;72.75
67759;SHT31;54562;47.620;18.786;2022-07-10T05:17:45;16.39;72.79
67759;SHT31;54562;47.620;18.786;2022-07-10T05:20:50;16.44;72.80
67759;SHT31;54562;47.620;18.786;2022-07-10T05:23:54;16.48;72.73
67759;SHT31;54562;47.620;18.786;2022-07-10T05:26:59;16.48;72.66
67759;SHT31;54562;47.620;18.786;2022-07-10T05:30:04;16.50;72.53
67759;SHT31;54562;47.620;18.786;2022-07-10T05:33:11;16.50;72.49
67759;SHT31;54562;47.620;18.786;2022-07-10T05:36:16;16.51;72.57
67759;SHT31;54562;47.620;18.786;2022-07-10T05:39:21;16.61;72.72
67759;SHT31;54562;47.620;18.786;2022-07-10T05:42:28;16.70;72.39
67759;SHT31;54562;47.620;18.786;2022-07-10T05:45:33;16.69;72.20
67759;SHT31;54562;47.620;18.786;2022-07-10T05:48:37;16.70;72.22
67759;SHT31;54562;47.620;18.786;2022-07-10T05:51:43;16.76;72.19
67759;SHT31;54562;47.620;18.786;2022-07-10T05:54:48;16.88;72.04
67759;SHT31;54562;47.620;18.786;2022-07-10T05:57:53;17.05;71.86
67759;SHT31;54562;47.620;18.786;2022-07-10T06:00:57;17.24;71.47
67759;SHT31;54562;47.620;18.786;2022-07-10T06:04:02;17.40;71.03
67759;SHT31;54562;47.620;18.786;2022-07-10T06:07:08;17.59;70.77
67759;SHT31;54562;47.620;18.786;2022-07-10T06:10:13;17.80;70.57
67759;SHT31;54562;47.620;18.786;2022-07-10T06:13:18;17.99;69.73
67759;SHT31;54562;47.620;18.786;2022-07-10T06:16:23;18.15;69.46
67759;SHT31;54562;47.620;18.786;2022-07-10T06:19:28;18.30;69.18
67759;SHT31;54562;47.620;18.786;2022-07-10T06:22:33;18.52;68.93
67759;SHT31;54562;47.620;18.786;2022-07-10T06:25:37;18.73;68.45
67759;SHT31;54562;47.620;18.786;2022-07-10T06:28:42;18.86;68.08
67759;SHT31;54562;47.620;18.786;2022-07-10T06:31:47;18.99;67.60
67759;SHT31;54562;47.620;18.786;2022-07-10T06:34:52;19.11;67.29
67759;SHT31;54562;47.620;18.786;2022-07-10T06:37:57;19.31;66.30
67759;SHT31;54562;47.620;18.786;2022-07-10T06:41:03;19.41;65.63
67759;SHT31;54562;47.620;18.786;2022-07-10T06:44:08;19.48;65.20
67759;SHT31;54562;47.620;18.786;2022-07-10T06:47:14;19.57;64.95
67759;SHT31;54562;47.620;18.786;2022-07-10T06:50:39;19.71;64.52
67759;SHT31;54562;47.620;18.786;2022-07-10T06:53:46;19.86;63.92
67759;SHT31;54562;47.620;18.786;2022-07-10T06:56:50;19.93;63.01
67759;SHT31;54562;47.620;18.786;2022-07-10T06:59:55;19.98;62.87
67759;SHT31;54562;47.620;18.786;2022-07-10T07:03:00;20.06;62.83
67759;SHT31;54562;47.620;18.786;2022-07-10T07:06:05;20.19;62.45
67759;SHT31;54562;47.620;18.786;2022-07-10T07:09:12;20.32;61.81
67759;SHT31;54562;47.620;18.786;2022-07-10T07:12:17;20.46;61.11
67759;SHT31;54562;47.620;18.786;2022-07-10T07:15:22;20.56;60.69
67759;SHT31;54562;47.620;18.786;2022-07-10T07:18:27;20.68;60.68
67759;SHT31;54562;47.620;18.786;2022-07-10T07:21:34;20.82;59.84
67759;SHT31;54562;47.620;18.786;2022-07-10T07:24:58;20.81;59.27
67759;SHT31;54562;47.620;18.786;2022-07-10T07:28:05;20.95;58.72
67759;SHT31;54562;47.620;18.786;2022-07-10T07:31:10;21.01;58.08
67759;SHT31;54562;47.620;18.786;2022-07-10T07:34:17;20.93;57.65
67759;SHT31;54562;47.620;18.786;2022-07-10T07:37:22;20.95;57.65
67759;SHT31;54562;47.620;18.786;2022-07-10T07:40:36;21.14;56.84
67759;SHT31;54562;47.620;18.786;2022-07-10T07:43:41;21.28;56.66
67759;SHT31;54562;47.620;18.786;2022-07-10T07:46:47;21.44;56.40
67759;SHT31;54562;47.620;18.786;2022-07-10T07:49:52;21.56;55.87
67759;SHT31;54562;47.620;18.786;2022-07-10T07:52:57;21.58;55.33
67759;SHT31;54562;47.620;18.786;2022-07-10T07:56:05;21.64;55.13
67759;SHT31;54562;47.620;18.786;2022-07-10T07:59:11;21.57;54.45
67759;SHT31;54562;47.620;18.786;2022-07-10T08:02:15;21.58;53.91
67759;SHT31;54562;47.620;18.786;2022-07-10T08:05:21;21.75;53.70
67759;SHT31;54562;47.620;18.786;2022-07-10T08:08:26;21.88;53.58
67759;SHT31;54562;47.620;18.786;2022-07-10T08:11:32;22.00;53.38
67759;SHT31;54562;47.620;18.786;2022-07-10T08:14:38;21.96;52.97
67759;SHT31;54562;47.620;18.786;2022-07-10T08:17:42;21.85;53.38
67759;SHT31;54562;47.620;18.786;2022-07-10T08:20:51;22.06;53.08
67759;SHT31;54562;47.620;18.786;2022-07-10T08:23:56;21.98;52.53
67759;SHT31;54562;47.620;18.786;2022-07-10T08:27:00;21.85;52.55
67759;SHT31;54562;47.620;18.786;2022-07-10T08:30:09;21.91;51.72
67759;SHT31;54562;47.620;18.786;2022-07-10T08:33:15;22.02;52.08
67759;SHT31;54562;47.620;18.786;2022-07-10T08:36:20;22.24;51.39
67759;SHT31;54562;47.620;18.786;2022-07-10T08:39:42;22.57;50.70
67759;SHT31;54562;47.620;18.786;2022-07-10T08:42:47;22.76;49.49
67759;SHT31;54562;47.620;18.786;2022-07-10T08:45:53;22.81;49.17
67759;SHT31;54562;47.620;18.786;2022-07-10T08:48:59;22.86;48.53
67759;SHT31;54562;47.620;18.786;2022-07-10T08:52:12;22.84;47.78
67759;SHT31;54562;47.620;18.786;2022-07-10T08:55:28;22.62;47.44
67759;SHT31;54562;47.620;18.786;2022-07-10T08:58:33;22.44;48.40
67759;SHT31;54562;47.620;18.786;2022-07-10T09:01:39;22.59;47.91
67759;SHT31;54562;47.620;18.786;2022-07-10T09:04:44;22.68;47.92
67759;SHT31;54562;47.620;18.786;2022-07-10T09:07:49;22.71;47.38
67759;SHT31;54562;47.620;18.786;2022-07-10T09:11:08;22.59;47.63
67759;SHT31;54562;47.620;18.786;2022-07-10T09:14:18;22.38;48.13
67759;SHT31;54562;47.620;18.786;2022-07-10T09:17:49;22.36;49.20
67759;SHT31;54562;47.620;18.786;2022-07-10T09:20:56;22.73;49.37
67759;SHT31;54562;47.620;18.786;2022-07-10T09:24:14;23.17;48.56
67759;SHT31;54562;47.620;18.786;2022-07-10T09:27:21;23.42;47.98
67759;SHT31;54562;47.620;18.786;2022-07-10T09:30:33;23.61;47.17
67759;SHT31;54562;47.620;18.786;2022-07-10T09:33:42;23.46;45.97
67759;SHT31;54562;47.620;18.786;2022-07-10T09:36:48;23.30;46.45
67759;SHT31;54562;47.620;18.786;2022-07-10T09:39:54;23.47;45.85
67759;SHT31;54562;47.620;18.786;2022-07-10T09:43:05;23.69;45.27
67759;SHT31;54562;47.620;18.786;2022-07-10T09:46:10;23.76;44.83
67759;SHT31;54562;47.620;18.786;2022-07-10T09:49:15;23.68;44.01
67759;SHT31;54562;47.620;18.786;2022-07-10T09:52:20;23.87;43.24
67759;SHT31;54562;47.620;18.786;2022-07-10T09:55:26;24.18;43.33
67759;SHT31;54562;47.620;18.786;2022-07-10T09:58:32;24.47;43.13
67759;SHT31;54562;47.620;18.786;2022-07-10T10:01:43;24.73;41.91
67759;SHT31;54562;47.620;18.786;2022-07-10T10:04:50;24.94;41.25
67759;SHT31;54562;47.620;18.786;2022-07-10T10:07:55;25.00;41.03
67759;SHT31;54562;47.620;18.786;2022-07-10T10:11:05;25.15;40.83
67759;SHT31;54562;47.620;18.786;2022-07-10T10:14:17;25.42;39.87
67759;SHT31;54562;47.620;18.786;2022-07-10T10:17:25;25.67;39.72
67759;SHT31;54562;47.620;18.786;2022-07-10T10:20:32;25.90;39.20
67759;SHT31;54562;47.620;18.786;2022-07-10T10:23:43;26.09;38.74
67759;SHT31;54562;47.620;18.786;2022-07-10T10:26:49;26.26;38.72
67759;SHT31;54562;47.620;18.786;2022-07-10T10:29:54;26.30;38.07
67759;SHT31;54562;47.620;18.786;2022-07-10T10:32:59;26.12;38.60
67759;SHT31;54562;47.620;18.786;2022-07-10T10:36:05;26.12;38.72
67759;SHT31;54562;47.620;18.786;2022-07-10T10:39:11;26.16;38.75
67759;SHT31;54562;47.620;18.786;2022-07-10T10:42:34;26.01;38.97
67759;SHT31;54562;47.620;18.786;2022-07-10T10:45:41;26.15;38.35
67759;SHT31;54562;47.620;18.786;2022-07-10T10:48:48;26.37;38.14
67759;SHT31;54562;47.620;18.786;2022-07-10T10:52:11;26.34;36.92
67759;SHT31;54562;47.620;18.786;2022-07-10T10:55:17;25.84;37.04
67759;SHT31;54562;47.620;18.786;2022-07-10T10:58:23;25.38;37.90
67759;SHT31;54562;47.620;18.786;2022-07-10T11:01:29;24.98;38.23
67759;SHT31;54562;47.620;18.786;2022-07-10T11:04:35;24.63;38.33
67759;SHT31;54562;47.620;18.786;2022-07-10T11:07:53;24.48;38.84
67759;SHT31;54562;47.620;18.786;2022-07-10T11:11:02;24.37;39.63
67759;SHT31;54562;47.620;18.786;2022-07-10T11:14:44;24.26;39.78
67759;SHT31;54562;47.620;18.786;2022-07-10T11:17:51;24.23;39.94
67759;SHT31;54562;47.620;18.786;2022-07-10T11:20:57;24.13;39.90
67759;SHT31;54562;47.620;18.786;2022-07-10T11:24:08;23.93;39.79
67759;SHT31;54562;47.620;18.786;2022-07-10T11:31:14;23.60;40.01
67759;SHT31;54562;47.620;18.786;2022-07-10T11:34:19;23.74;40.05
67759;SHT31;54562;47.620;18.786;2022-07-10T11:37:25;24.07;38.70
67759;SHT31;54562;47.620;18.786;2022-07-10T11:40:35;24.38;37.92
67759;SHT31;54562;47.620;18.786;2022-07-10T11:43:46;24.61;37.58
67759;SHT31;54562;47.620;18.786;2022-07-10T11:46:52;25.09;37.08
67759;SHT31;54562;47.620;18.786;2022-07-10T11:49:58;25.51;36.66
67759;SHT31;54562;47.620;18.786;2022-07-10T11:53:04;25.27;35.92
67759;SHT31;54562;47.620;18.786;2022-07-10T11:56:09;25.11;36.53
67759;SHT31;54562;47.620;18.786;2022-07-10T11:59:14;24.90;36.58
67759;SHT31;54562;47.620;18.786;2022-07-10T12:02:22;24.69;37.47
67759;SHT31;54562;47.620;18.786;2022-07-10T12:05:34;25.15;37.70
67759;SHT31;54562;47.620;18.786;2022-07-10T12:08:44;25.18;36.75
67759;SHT31;54562;47.620;18.786;2022-07-10T12:11:58;25.39;36.52
67759;SHT31;54562;47.620;18.786;2022-07-10T12:15:05;25.76;35.86
67759;SHT31;54562;47.620;18.786;2022-07-10T12:18:15;26.06;35.22
67759;SHT31;54562;47.620;18.786;2022-07-10T12:21:23;26.20;35.33
67759;SHT31;54562;47.620;18.786;2022-07-10T12:24:28;26.08;35.47
67759;SHT31;54562;47.620;18.786;2022-07-10T12:27:40;25.67;35.99
67759;SHT31;54562;47.620;18.786;2022-07-10T12:30:46;25.16;36.47
67759;SHT31;54562;47.620;18.786;2022-07-10T12:33:52;24.81;36.56
67759;SHT31;54562;47.620;18.786;2022-07-10T12:37:07;24.46;36.83
67759;SHT31;54562;47.620;18.786;2022-07-10T12:40:13;24.24;37.58
67759;SHT31;54562;47.620;18.786;2022-07-10T12:43:35;24.19;37.91
67759;SHT31;54562;47.620;18.786;2022-07-10T12:46:40;24.59;37.77
67759;SHT31;54562;47.620;18.786;2022-07-10T12:49:52;25.08;37.01
67759;SHT31;54562;47.620;18.786;2022-07-10T12:53:08;25.24;36.92
67759;SHT31;54562;47.620;18.786;2022-07-10T12:56:26;25.72;36.63
67759;SHT31;54562;47.620;18.786;2022-07-10T12:59:33;25.74;36.53
67759;SHT31;54562;47.620;18.786;2022-07-10T13:02:40;25.86;36.34
67759;SHT31;54562;47.620;18.786;2022-07-10T13:05:46;26.04;35.54
67759;SHT31;54562;47.620;18.786;2022-07-10T13:08:51;26.23;35.21
67759;SHT31;54562;47.620;18.786;2022-07-10T13:11:56;26.40;35.22
67759;SHT31;54562;47.620;18.786;2022-07-10T13:15:01;26.45;34.46
67759;SHT31;54562;47.620;18.786;2022-07-10T13:18:07;26.21;34.42
67759;SHT31;54562;47.620;18.786;2022-07-10T13:21:17;26.38;34.19
67759;SHT31;54562;47.620;18.786;2022-07-10T13:24:22;26.38;34.32
67759;SHT31;54562;47.620;18.786;2022-07-10T13:27:28;26.59;34.52
67759;SHT31;54562;47.620;18.786;2022-07-10T13:30:34;26.10;34.54
67759;SHT31;54562;47.620;18.786;2022-07-10T13:33:39;25.42;34.50
67759;SHT31;54562;47.620;18.786;2022-07-10T13:36:44;25.37;34.49
67759;SHT31;54562;47.620;18.786;2022-07-10T13:39:49;25.75;33.92
67759;SHT31;54562;47.620;18.786;2022-07-10T13:42:54;26.13;33.22
67759;SHT31;54562;47.620;18.786;2022-07-10T13:45:59;26.40;32.02
67759;SHT31;54562;47.620;18.786;2022-07-10T13:49:06;26.66;32.08
67759;SHT31;54562;47.620;18.786;2022-07-10T13:52:11;26.81;31.67
67759;SHT31;54562;47.620;18.786;2022-07-10T13:55:15;26.95;31.72
67759;SHT31;54562;47.620;18.786;2022-07-10T13:58:21;27.09;31.34
67759;SHT31;54562;47.620;18.786;2022-07-10T14:01:25;27.18;30.87
67759;SHT31;54562;47.620;18.786;2022-07-10T14:04:30;27.19;30.25
67759;SHT31;54562;47.620;18.786;2022-07-10T14:07:35;26.88;29.98
67759;SHT31;54562;47.620;18.786;2022-07-10T14:10:41;26.31;30.13
67759;SHT31;54562;47.620;18.786;2022-07-10T14:13:46;26.32;30.51
67759;SHT31;54562;47.620;18.786;2022-07-10T14:16:51;26.31;30.21
67759;SHT31;54562;47.620;18.786;2022-07-10T14:19:56;26.44;30.86
67759;SHT31;54562;47.620;18.786;2022-07-10T14:23:00;26.66;30.65
67759;SHT31;54562;47.620;18.786;2022-07-10T14:26:05;26.85;30.30
67759;SHT31;54562;47.620;18.786;2022-07-10T14:29:12;27.11;30.22
67759;SHT31;54562;47.620;18.786;2022-07-10T14:32:17;26.97;29.32
67759;SHT31;54562;47.620;18.786;2022-07-10T14:35:22;26.60;29.86
67759;SHT31;54562;47.620;18.786;2022-07-10T14:38:27;26.32;29.92
67759;SHT31;54562;47.620;18.786;2022-07-10T14:41:31;26.37;29.92
67759;SHT31;54562;47.620;18.786;2022-07-10T14:44:36;26.47;29.61
67759;SHT31;54562;47.620;18.786;2022-07-10T14:47:42;26.27;29.59
67759;SHT31;54562;47.620;18.786;2022-07-10T14:50:46;26.00;29.63
67759;SHT31;54562;47.620;18.786;2022-07-10T14:53:51;26.10;29.52
67759;SHT31;54562;47.620;18.786;2022-07-10T14:56:57;26.20;28.81
67759;SHT31;54562;47.620;18.786;2022-07-10T15:00:07;26.24;28.96
67759;SHT31;54562;47.620;18.786;2022-07-10T15:03:15;26.34;28.64
67759;SHT31;54562;47.620;18.786;2022-07-10T15:06:20;26.33;28.58
67759;SHT31;54562;47.620;18.786;2022-07-10T15:09:25;25.83;28.94
67759;SHT31;54562;47.620;18.786;2022-07-10T15:12:30;25.19;29.51
67759;SHT31;54562;47.620;18.786;2022-07-10T15:15:37;25.12;29.72
67759;SHT31;54562;47.620;18.786;2022-07-10T15:18:42;25.25;29.45
67759;SHT31;54562;47.620;18.786;2022-07-10T15:21:47;25.27;29.43
67759;SHT31;54562;47.620;18.786;2022-07-10T15:24:53;25.30;29.43
67759;SHT31;54562;47.620;18.786;2022-07-10T15:27:58;25.30;28.96
67759;SHT31;54562;47.620;18.786;2022-07-10T15:31:04;25.24;28.95
67759;SHT31;54562;47.620;18.786;2022-07-10T15:34:09;25.26;28.92
67759;SHT31;54562;47.620;18.786;2022-07-10T15:37:16;25.16;28.78
67759;SHT31;54562;47.620;18.786;2022-07-10T15:40:21;24.94;29.08
67759;SHT31;54562;47.620;18.786;2022-07-10T15:43:25;24.81;29.35
67759;SHT31;54562;47.620;18.786;2022-07-10T15:46:31;24.71;29.58
67759;SHT31;54562;47.620;18.786;2022-07-10T15:49:35;24.57;29.58
67759;SHT31;54562;47.620;18.786;2022-07-10T15:52:40;24.45;29.77
67759;SHT31;54562;47.620;18.786;2022-07-10T15:55:47;24.29;29.51
67759;SHT31;54562;47.620;18.786;2022-07-10T15:58:52;24.06;29.66
67759;SHT31;54562;47.620;18.786;2022-07-10T16:01:57;23.86;29.74
67759;SHT31;54562;47.620;18.786;2022-07-10T16:05:02;23.69;30.01
67759;SHT31;54562;47.620;18.786;2022-07-10T16:08:08;23.62;29.98
67759;SHT31;54562;47.620;18.786;2022-07-10T16:11:13;23.50;29.92
67759;SHT31;54562;47.620;18.786;2022-07-10T16:14:19;23.44;30.23
67759;SHT31;54562;47.620;18.786;2022-07-10T16:17:24;23.39;30.18
67759;SHT31;54562;47.620;18.786;2022-07-10T16:20:29;23.33;30.23
67759;SHT31;54562;47.620;18.786;2022-07-10T16:23:36;23.26;30.34
67759;SHT31;54562;47.620;18.786;2022-07-10T16:26:41;23.21;30.58
67759;SHT31;54562;47.620;18.786;2022-07-10T16:29:51;23.10;30.77
67759;SHT31;54562;47.620;18.786;2022-07-10T16:32:56;22.96;31.04
67759;SHT31;54562;47.620;18.786;2022-07-10T16:36:02;22.81;31.30
67759;SHT31;54562;47.620;18.786;2022-07-10T16:39:08;22.67;31.50
67759;SHT31;54562;47.620;18.786;2022-07-10T16:42:18;22.51;31.72
67759;SHT31;54562;47.620;18.786;2022-07-10T16:45:23;22.45;31.85
67759;SHT31;54562;47.620;18.786;2022-07-10T16:48:28;22.40;31.77
67759;SHT31;54562;47.620;18.786;2022-07-10T16:51:33;22.30;31.44
67759;SHT31;54562;47.620;18.786;2022-07-10T16:54:38;22.16;31.35
67759;SHT31;54562;47.620;18.786;2022-07-10T16:57:43;21.98;31.42
67759;SHT31;54562;47.620;18.786;2022-07-10T17:00:48;21.85;31.60
67759;SHT31;54562;47.620;18.786;2022-07-10T17:03:53;21.74;31.85
67759;SHT31;54562;47.620;18.786;2022-07-10T17:06:58;21.57;32.12
67759;SHT31;54562;47.620;18.786;2022-07-10T17:10:04;21.37;32.29
67759;SHT31;54562;47.620;18.786;2022-07-10T17:13:11;21.19;32.63
67759;SHT31;54562;47.620;18.786;2022-07-10T17:16:16;20.99;32.67
67759;SHT31;54562;47.620;18.786;2022-07-10T17:19:21;20.83;33.08
67759;SHT31;54562;47.620;18.786;2022-07-10T17:22:27;20.67;33.83
67759;SHT31;54562;47.620;18.786;2022-07-10T17:25:32;20.48;34.64
67759;SHT31;54562;47.620;18.786;2022-07-10T17:28:38;20.36;34.63
67759;SHT31;54562;47.620;18.786;2022-07-10T17:31:43;20.22;34.82
67759;SHT31;54562;47.620;18.786;2022-07-10T17:34:48;20.06;34.76
67759;SHT31;54562;47.620;18.786;2022-07-10T17:37:53;19.92;35.14
67759;SHT31;54562;47.620;18.786;2022-07-10T17:40:58;19.79;35.31
67759;SHT31;54562;47.620;18.786;2022-07-10T17:44:03;19.63;35.60
67759;SHT31;54562;47.620;18.786;2022-07-10T17:47:08;19.48;35.88
67759;SHT31;54562;47.620;18.786;2022-07-10T17:50:13;19.34;36.09
67759;SHT31;54562;47.620;18.786;2022-07-10T17:53:18;19.23;36.41
67759;SHT31;54562;47.620;18.786;2022-07-10T17:56:24;19.13;36.69
67759;SHT31;54562;47.620;18.786;2022-07-10T17:59:29;19.03;36.81
67759;SHT31;54562;47.620;18.786;2022-07-10T18:02:34;18.93;37.22
67759;SHT31;54562;47.620;18.786;2022-07-10T18:05:38;18.83;37.52
67759;SHT31;54562;47.620;18.786;2022-07-10T18:08:48;18.74;37.88
67759;SHT31;54562;47.620;18.786;2022-07-10T18:11:53;18.66;38.17
67759;SHT31;54562;47.620;18.786;2022-07-10T18:14:58;18.55;38.49
67759;SHT31;54562;47.620;18.786;2022-07-10T18:18:03;18.46;38.72
67759;SHT31;54562;47.620;18.786;2022-07-10T18:21:08;18.36;39.19
67759;SHT31;54562;47.620;18.786;2022-07-10T18:24:14;18.27;39.58
67759;SHT31;54562;47.620;18.786;2022-07-10T18:27:21;18.19;40.08
67759;SHT31;54562;47.620;18.786;2022-07-10T18:30:26;18.10;40.24
67759;SHT31;54562;47.620;18.786;2022-07-10T18:33:31;18.02;40.53
67759;SHT31;54562;47.620;18.786;2022-07-10T18:37:03;17.92;41.32
67759;SHT31;54562;47.620;18.786;2022-07-10T18:40:09;17.87;41.55
67759;SHT31;54562;47.620;18.786;2022-07-10T18:43:14;17.80;41.88
67759;SHT31;54562;47.620;18.786;2022-07-10T18:46:19;17.73;41.99
67759;SHT31;54562;47.620;18.786;2022-07-10T18:49:24;17.65;42.27
67759;SHT31;54562;47.620;18.786;2022-07-10T18:52:29;17.60;42.72
67759;SHT31;54562;47.620;18.786;2022-07-10T18:55:45;17.53;42.89
67759;SHT31;54562;47.620;18.786;2022-07-10T18:58:50;17.48;43.13
67759;SHT31;54562;47.620;18.786;2022-07-10T19:01:55;17.42;43.25
67759;SHT31;54562;47.620;18.786;2022-07-10T19:05:00;17.36;43.55
67759;SHT31;54562;47.620;18.786;2022-07-10T19:08:06;17.30;43.92
67759;SHT31;54562;47.620;18.786;2022-07-10T19:11:12;17.24;44.27
67759;SHT31;54562;47.620;18.786;2022-07-10T19:14:17;17.19;44.47
67759;SHT31;54562;47.620;18.786;2022-07-10T19:17:22;17.14;44.74
67759;SHT31;54562;47.620;18.786;2022-07-10T19:20:30;17.11;45.02
67759;SHT31;54562;47.620;18.786;2022-07-10T19:23:35;17.06;45.20